Columbia Gorge Regional the Dalles Municipal Airport
KDLS : now visible

Airfield :











YOU CAN JOIN US ON...

 
LOGIN :

Register | Disclaimer

   EN    FR    IT 

 









Legend :    VFR   Marginal VFR   IFR   Intensive IFR   Very Intensive IFR
Visi :
Ceiling :
>= 8 km
>= 3000ft
5 to 8 km
1000 to 3000 ft
1500m to 5 km
500 to 1000 ft
800 to 1500m
200 to 500 ft
< 800m
< 200 ft
Symbols :   Thunderstorms  Fog  Heavy snow  Heavy precipitations  Wind > 20 kt






- Airport Elevation : 247 ft


KDLS - Columbia Gorge Regional the Dalles Municipal

CURRENT METAR :
  • 230953Z AUTO 28008KT 10SM CLR 11/06 A3008 RMK AO2 SLP187 T01110056 $

EXPIRED METARs :
  • 230853Z AUTO 31010KT 10SM CLR 11/06 A3007 RMK AO2 SLP185 T01110056 53004 $
  • 230753Z AUTO 28008KT 10SM SCT047 11/06 A3007 RMK AO2 SLP183 T01110056 401560094 $
  • 230653Z AUTO 31012KT 10SM CLR 12/06 A3007 RMK AO2 SLP182 T01170061 $
  • 230553Z AUTO 31008KT 10SM SCT050 11/06 A3006 RMK AO2 SLP181 T01110056 10150 20111 51026 $

TAF KDLS
Valid from the 23 at 06:00 until the 24 at 06:00 UTC


230520Z 2306/2406 30012KT P6SM FEW050
FM231000 30009KT P6SM SKC
FM231600 30013G23KT P6SM SKC
FM240400 30008KT P6SM SKC
KZSE FIR / North America



MET'MAP, your aeronautical weather chart ! - Copyright ORBIFLY December 2007 - Disclaimer

ORBIFLY MET'MAP TEAM :

Programming & Development : Alexandra Zaïnal
Original concept : Baudouin d'Aumeries
Technical & hardware support : Manuel Goepfert
Assistance : Marc-Olivier Méhu




SOURCES & CREDITS :

   NOAA       Earth
Advisory